sensor_id;sensor_type;location;lat;lon;timestamp;temperature;humidity
17452;DHT22;8843;48.838;9.324;2023-04-06T00:00:16;9.80;60.10
17452;DHT22;8843;48.838;9.324;2023-04-06T00:02:45;9.80;60.10
17452;DHT22;8843;48.838;9.324;2023-04-06T00:05:12;9.80;60.10
17452;DHT22;8843;48.838;9.324;2023-04-06T00:07:39;9.80;60.10
17452;DHT22;8843;48.838;9.324;2023-04-06T00:10:06;9.80;60.90
17452;DHT22;8843;48.838;9.324;2023-04-06T00:12:34;9.80;60.10
17452;DHT22;8843;48.838;9.324;2023-04-06T00:15:01;9.80;60.20
17452;DHT22;8843;48.838;9.324;2023-04-06T00:17:28;9.80;60.20
17452;DHT22;8843;48.838;9.324;2023-04-06T00:19:56;9.80;60.20
17452;DHT22;8843;48.838;9.324;2023-04-06T00:22:23;9.80;60.20
17452;DHT22;8843;48.838;9.324;2023-04-06T00:24:50;9.80;60.10
17452;DHT22;8843;48.838;9.324;2023-04-06T00:27:17;9.80;60.20
17452;DHT22;8843;48.838;9.324;2023-04-06T00:29:45;9.80;60.20
17452;DHT22;8843;48.838;9.324;2023-04-06T00:32:11;9.70;60.10
17452;DHT22;8843;48.838;9.324;2023-04-06T00:34:38;9.70;60.10
17452;DHT22;8843;48.838;9.324;2023-04-06T00:37:07;9.70;60.10
17452;DHT22;8843;48.838;9.324;2023-04-06T00:39:34;9.70;60.20
17452;DHT22;8843;48.838;9.324;2023-04-06T00:42:01;9.70;60.10
17452;DHT22;8843;48.838;9.324;2023-04-06T00:44:34;9.70;60.10
17452;DHT22;8843;48.838;9.324;2023-04-06T00:47:01;9.70;60.10
17452;DHT22;8843;48.838;9.324;2023-04-06T00:49:28;9.70;60.10
17452;DHT22;8843;48.838;9.324;2023-04-06T00:51:55;9.70;60.20
17452;DHT22;8843;48.838;9.324;2023-04-06T00:54:23;9.70;60.20
17452;DHT22;8843;48.838;9.324;2023-04-06T00:56:50;9.70;60.20
17452;DHT22;8843;48.838;9.324;2023-04-06T00:59:17;9.70;60.20
17452;DHT22;8843;48.838;9.324;2023-04-06T01:01:44;9.70;60.20
17452;DHT22;8843;48.838;9.324;2023-04-06T01:04:11;9.70;60.20
17452;DHT22;8843;48.838;9.324;2023-04-06T01:06:38;9.70;60.20
17452;DHT22;8843;48.838;9.324;2023-04-06T01:09:05;9.70;60.10
17452;DHT22;8843;48.838;9.324;2023-04-06T01:11:35;9.70;60.30
17452;DHT22;8843;48.838;9.324;2023-04-06T01:14:03;9.60;60.10
17452;DHT22;8843;48.838;9.324;2023-04-06T01:16:30;9.60;60.10
17452;DHT22;8843;48.838;9.324;2023-04-06T01:18:57;9.60;60.20
17452;DHT22;8843;48.838;9.324;2023-04-06T01:21:24;9.60;60.10
17452;DHT22;8843;48.838;9.324;2023-04-06T01:23:53;9.60;60.20
17452;DHT22;8843;48.838;9.324;2023-04-06T01:26:20;9.60;60.20
17452;DHT22;8843;48.838;9.324;2023-04-06T01:28:47;9.60;60.20
17452;DHT22;8843;48.838;9.324;2023-04-06T01:31:14;9.60;60.20
17452;DHT22;8843;48.838;9.324;2023-04-06T01:33:41;9.60;60.20
17452;DHT22;8843;48.838;9.324;2023-04-06T01:36:08;9.60;60.20
17452;DHT22;8843;48.838;9.324;2023-04-06T01:38:35;9.60;60.20
17452;DHT22;8843;48.838;9.324;2023-04-06T01:41:03;9.60;60.20
17452;DHT22;8843;48.838;9.324;2023-04-06T01:43:30;9.60;60.20
17452;DHT22;8843;48.838;9.324;2023-04-06T01:45:57;9.60;60.30
17452;DHT22;8843;48.838;9.324;2023-04-06T01:48:25;9.60;60.30
17452;DHT22;8843;48.838;9.324;2023-04-06T01:50:52;9.60;60.30
17452;DHT22;8843;48.838;9.324;2023-04-06T01:53:19;9.60;60.40
17452;DHT22;8843;48.838;9.324;2023-04-06T01:55:46;9.50;60.30
17452;DHT22;8843;48.838;9.324;2023-04-06T01:58:15;9.60;60.30
17452;DHT22;8843;48.838;9.324;2023-04-06T02:00:42;9.50;60.30
17452;DHT22;8843;48.838;9.324;2023-04-06T02:03:10;9.50;60.20
17452;DHT22;8843;48.838;9.324;2023-04-06T02:05:37;9.50;60.30
17452;DHT22;8843;48.838;9.324;2023-04-06T02:08:04;9.50;60.20
17452;DHT22;8843;48.838;9.324;2023-04-06T02:10:31;9.50;60.30
17452;DHT22;8843;48.838;9.324;2023-04-06T02:12:58;9.50;60.30
17452;DHT22;8843;48.838;9.324;2023-04-06T02:15:27;9.50;60.30
17452;DHT22;8843;48.838;9.324;2023-04-06T02:17:54;9.50;60.30
17452;DHT22;8843;48.838;9.324;2023-04-06T02:20:21;9.50;60.30
17452;DHT22;8843;48.838;9.324;2023-04-06T02:22:48;9.50;60.30
17452;DHT22;8843;48.838;9.324;2023-04-06T02:25:15;9.50;60.30
17452;DHT22;8843;48.838;9.324;2023-04-06T02:27:42;9.50;60.30
17452;DHT22;8843;48.838;9.324;2023-04-06T02:30:10;9.50;60.30
17452;DHT22;8843;48.838;9.324;2023-04-06T02:32:38;9.50;60.30
17452;DHT22;8843;48.838;9.324;2023-04-06T02:35:06;9.40;60.20
17452;DHT22;8843;48.838;9.324;2023-04-06T02:37:33;9.40;60.20
17452;DHT22;8843;48.838;9.324;2023-04-06T02:40:00;9.40;60.10
17452;DHT22;8843;48.838;9.324;2023-04-06T02:42:27;9.40;60.20
17452;DHT22;8843;48.838;9.324;2023-04-06T02:44:54;9.40;60.20
17452;DHT22;8843;48.838;9.324;2023-04-06T02:47:20;9.40;60.20
17452;DHT22;8843;48.838;9.324;2023-04-06T02:49:49;9.40;60.20
17452;DHT22;8843;48.838;9.324;2023-04-06T02:52:16;9.40;60.20
17452;DHT22;8843;48.838;9.324;2023-04-06T02:54:43;9.40;60.20
17452;DHT22;8843;48.838;9.324;2023-04-06T02:57:10;9.40;60.20
17452;DHT22;8843;48.838;9.324;2023-04-06T02:59:37;9.40;60.20
17452;DHT22;8843;48.838;9.324;2023-04-06T03:02:04;9.40;60.20
17452;DHT22;8843;48.838;9.324;2023-04-06T03:04:31;9.40;60.20
17452;DHT22;8843;48.838;9.324;2023-04-06T03:07:00;9.40;60.20
17452;DHT22;8843;48.838;9.324;2023-04-06T03:09:27;9.40;60.20
17452;DHT22;8843;48.838;9.324;2023-04-06T03:11:53;9.40;60.20
17452;DHT22;8843;48.838;9.324;2023-04-06T03:14:21;9.40;60.20
17452;DHT22;8843;48.838;9.324;2023-04-06T03:16:48;9.40;60.20
17452;DHT22;8843;48.838;9.324;2023-04-06T03:19:15;9.30;60.10
17452;DHT22;8843;48.838;9.324;2023-04-06T03:21:42;9.30;60.10
17452;DHT22;8843;48.838;9.324;2023-04-06T03:24:10;9.30;60.10
17452;DHT22;8843;48.838;9.324;2023-04-06T03:26:38;9.30;60.10
17452;DHT22;8843;48.838;9.324;2023-04-06T03:29:05;9.30;60.20
17452;DHT22;8843;48.838;9.324;2023-04-06T03:31:32;9.30;60.10
17452;DHT22;8843;48.838;9.324;2023-04-06T03:33:59;9.30;60.10
17452;DHT22;8843;48.838;9.324;2023-04-06T03:36:26;9.30;60.20
17452;DHT22;8843;48.838;9.324;2023-04-06T03:38:53;9.30;60.10
17452;DHT22;8843;48.838;9.324;2023-04-06T03:41:21;9.30;60.10
17452;DHT22;8843;48.838;9.324;2023-04-06T03:43:48;9.30;60.10
17452;DHT22;8843;48.838;9.324;2023-04-06T03:46:15;9.30;60.10
17452;DHT22;8843;48.838;9.324;2023-04-06T03:48:42;9.30;60.10
17452;DHT22;8843;48.838;9.324;2023-04-06T03:51:09;9.30;60.10
17452;DHT22;8843;48.838;9.324;2023-04-06T03:53:36;9.30;60.10
17452;DHT22;8843;48.838;9.324;2023-04-06T03:56:04;9.30;60.10
17452;DHT22;8843;48.838;9.324;2023-04-06T03:58:32;9.20;60.00
17452;DHT22;8843;48.838;9.324;2023-04-06T04:00:59;9.20;60.00
17452;DHT22;8843;48.838;9.324;2023-04-06T04:03:26;9.20;60.00
17452;DHT22;8843;48.838;9.324;2023-04-06T04:05:53;9.20;60.00
17452;DHT22;8843;48.838;9.324;2023-04-06T04:08:21;9.20;60.00
17452;DHT22;8843;48.838;9.324;2023-04-06T04:10:48;9.20;60.00
17452;DHT22;8843;48.838;9.324;2023-04-06T04:13:15;9.20;60.00
17452;DHT22;8843;48.838;9.324;2023-04-06T04:15:44;9.20;60.00
17452;DHT22;8843;48.838;9.324;2023-04-06T04:18:13;9.20;60.00
17452;DHT22;8843;48.838;9.324;2023-04-06T04:20:40;9.20;60.00
17452;DHT22;8843;48.838;9.324;2023-04-06T04:23:06;9.20;60.10
17452;DHT22;8843;48.838;9.324;2023-04-06T04:25:33;9.20;60.00
17452;DHT22;8843;48.838;9.324;2023-04-06T04:28:00;9.20;60.00
17452;DHT22;8843;48.838;9.324;2023-04-06T04:30:27;9.20;60.00
17452;DHT22;8843;48.838;9.324;2023-04-06T04:32:56;9.20;60.00
17452;DHT22;8843;48.838;9.324;2023-04-06T04:35:23;9.20;60.00
17452;DHT22;8843;48.838;9.324;2023-04-06T04:37:50;9.20;60.00
17452;DHT22;8843;48.838;9.324;2023-04-06T04:40:17;9.20;60.00
17452;DHT22;8843;48.838;9.324;2023-04-06T04:42:44;9.20;60.10
17452;DHT22;8843;48.838;9.324;2023-04-06T04:45:12;9.10;60.00
17452;DHT22;8843;48.838;9.324;2023-04-06T04:47:39;9.10;60.00
17452;DHT22;8843;48.838;9.324;2023-04-06T04:50:08;9.10;60.10
17452;DHT22;8843;48.838;9.324;2023-04-06T04:52:35;9.10;60.10
17452;DHT22;8843;48.838;9.324;2023-04-06T04:55:02;9.10;60.00
17452;DHT22;8843;48.838;9.324;2023-04-06T04:57:29;9.10;60.00
17452;DHT22;8843;48.838;9.324;2023-04-06T04:59:56;9.10;60.00
17452;DHT22;8843;48.838;9.324;2023-04-06T05:02:23;9.10;60.10
17452;DHT22;8843;48.838;9.324;2023-04-06T05:04:50;9.10;60.00
17452;DHT22;8843;48.838;9.324;2023-04-06T05:07:19;9.10;60.10
17452;DHT22;8843;48.838;9.324;2023-04-06T05:09:46;9.10;60.10
17452;DHT22;8843;48.838;9.324;2023-04-06T05:12:13;9.10;60.10
17452;DHT22;8843;48.838;9.324;2023-04-06T05:14:40;9.10;60.00
17452;DHT22;8843;48.838;9.324;2023-04-06T05:17:08;9.10;60.10
17452;DHT22;8843;48.838;9.324;2023-04-06T05:19:35;9.20;65.10
17452;DHT22;8843;48.838;9.324;2023-04-06T05:22:02;9.30;61.50
17452;DHT22;8843;48.838;9.324;2023-04-06T05:24:30;9.20;60.20
17452;DHT22;8843;48.838;9.324;2023-04-06T05:26:57;9.10;60.20
17452;DHT22;8843;48.838;9.324;2023-04-06T05:29:25;9.10;60.30
17452;DHT22;8843;48.838;9.324;2023-04-06T05:31:52;9.10;60.40
17452;DHT22;8843;48.838;9.324;2023-04-06T05:34:20;9.00;60.30
17452;DHT22;8843;48.838;9.324;2023-04-06T05:36:47;9.00;60.30
17452;DHT22;8843;48.838;9.324;2023-04-06T05:39:14;9.00;60.30
17452;DHT22;8843;48.838;9.324;2023-04-06T05:41:42;9.00;61.10
17452;DHT22;8843;48.838;9.324;2023-04-06T05:44:09;9.00;60.30
17452;DHT22;8843;48.838;9.324;2023-04-06T05:46:36;9.00;60.30
17452;DHT22;8843;48.838;9.324;2023-04-06T05:49:03;9.00;60.30
17452;DHT22;8843;48.838;9.324;2023-04-06T05:51:30;9.00;60.00
17452;DHT22;8843;48.838;9.324;2023-04-06T05:53:57;8.50;54.90
17452;DHT22;8843;48.838;9.324;2023-04-06T05:56:24;7.50;51.70
17452;DHT22;8843;48.838;9.324;2023-04-06T05:58:53;6.90;52.60
17452;DHT22;8843;48.838;9.324;2023-04-06T06:01:20;6.30;53.50
17452;DHT22;8843;48.838;9.324;2023-04-06T06:03:47;6.10;57.50
17452;DHT22;8843;48.838;9.324;2023-04-06T06:06:14;5.60;55.60
17452;DHT22;8843;48.838;9.324;2023-04-06T06:08:41;5.60;55.60
17452;DHT22;8843;48.838;9.324;2023-04-06T06:11:08;5.50;55.90
17452;DHT22;8843;48.838;9.324;2023-04-06T06:13:35;5.50;56.10
17452;DHT22;8843;48.838;9.324;2023-04-06T06:16:04;5.50;56.40
17452;DHT22;8843;48.838;9.324;2023-04-06T06:18:31;5.50;56.70
17452;DHT22;8843;48.838;9.324;2023-04-06T06:20:58;5.40;56.80
17452;DHT22;8843;48.838;9.324;2023-04-06T06:23:25;6.60;58.70
17452;DHT22;8843;48.838;9.324;2023-04-06T06:25:52;7.20;61.00
17452;DHT22;8843;48.838;9.324;2023-04-06T06:28:20;7.70;61.10
17452;DHT22;8843;48.838;9.324;2023-04-06T06:30:47;9.30;57.60
17452;DHT22;8843;48.838;9.324;2023-04-06T06:33:15;9.60;54.60
17452;DHT22;8843;48.838;9.324;2023-04-06T06:35:42;9.30;56.30
17452;DHT22;8843;48.838;9.324;2023-04-06T06:38:09;9.00;57.10
17452;DHT22;8843;48.838;9.324;2023-04-06T06:40:36;8.80;57.30
17452;DHT22;8843;48.838;9.324;2023-04-06T06:43:03;8.70;57.50
17452;DHT22;8843;48.838;9.324;2023-04-06T06:45:31;8.70;57.70
17452;DHT22;8843;48.838;9.324;2023-04-06T06:47:58;8.60;57.80
17452;DHT22;8843;48.838;9.324;2023-04-06T06:50:26;8.60;57.80
17452;DHT22;8843;48.838;9.324;2023-04-06T06:52:54;8.60;58.00
17452;DHT22;8843;48.838;9.324;2023-04-06T06:55:21;8.60;58.00
17452;DHT22;8843;48.838;9.324;2023-04-06T06:57:48;8.60;58.00
17452;DHT22;8843;48.838;9.324;2023-04-06T07:00:15;8.50;58.00
17452;DHT22;8843;48.838;9.324;2023-04-06T07:02:42;8.50;58.00
17452;DHT22;8843;48.838;9.324;2023-04-06T07:05:09;8.50;58.00
17452;DHT22;8843;48.838;9.324;2023-04-06T07:07:37;8.60;58.00
17452;DHT22;8843;48.838;9.324;2023-04-06T07:10:05;8.60;58.20
17452;DHT22;8843;48.838;9.324;2023-04-06T07:12:32;8.60;58.30
17452;DHT22;8843;48.838;9.324;2023-04-06T07:14:59;8.60;58.30
17452;DHT22;8843;48.838;9.324;2023-04-06T07:17:26;8.60;58.30
17452;DHT22;8843;48.838;9.324;2023-04-06T07:19:53;8.60;58.40
17452;DHT22;8843;48.838;9.324;2023-04-06T07:22:20;8.60;58.50
17452;DHT22;8843;48.838;9.324;2023-04-06T07:24:48;8.60;58.50
17452;DHT22;8843;48.838;9.324;2023-04-06T07:27:15;8.60;58.60
17452;DHT22;8843;48.838;9.324;2023-04-06T07:29:44;8.60;58.60
17452;DHT22;8843;48.838;9.324;2023-04-06T07:32:11;8.60;58.60
17452;DHT22;8843;48.838;9.324;2023-04-06T07:34:38;8.60;58.60
17452;DHT22;8843;48.838;9.324;2023-04-06T07:37:05;8.60;58.70
17452;DHT22;8843;48.838;9.324;2023-04-06T07:39:32;8.60;58.80
17452;DHT22;8843;48.838;9.324;2023-04-06T07:42:00;8.50;58.80
17452;DHT22;8843;48.838;9.324;2023-04-06T07:44:27;8.60;59.00
17452;DHT22;8843;48.838;9.324;2023-04-06T07:46:54;8.60;58.90
17452;DHT22;8843;48.838;9.324;2023-04-06T07:49:21;8.60;59.00
17452;DHT22;8843;48.838;9.324;2023-04-06T07:51:48;8.60;58.90
17452;DHT22;8843;48.838;9.324;2023-04-06T07:54:15;8.60;59.20
17452;DHT22;8843;48.838;9.324;2023-04-06T07:56:42;8.60;59.20
17452;DHT22;8843;48.838;9.324;2023-04-06T07:59:10;8.60;59.30
17452;DHT22;8843;48.838;9.324;2023-04-06T08:01:39;8.60;59.30
17452;DHT22;8843;48.838;9.324;2023-04-06T08:04:06;8.60;59.40
17452;DHT22;8843;48.838;9.324;2023-04-06T08:06:33;8.60;59.50
17452;DHT22;8843;48.838;9.324;2023-04-06T08:09:00;8.60;59.40
17452;DHT22;8843;48.838;9.324;2023-04-06T08:11:27;8.60;59.50
17452;DHT22;8843;48.838;9.324;2023-04-06T08:13:54;8.60;59.60
17452;DHT22;8843;48.838;9.324;2023-04-06T08:16:24;8.60;59.70
17452;DHT22;8843;48.838;9.324;2023-04-06T08:18:51;8.60;59.70
17452;DHT22;8843;48.838;9.324;2023-04-06T08:21:18;8.60;59.70
17452;DHT22;8843;48.838;9.324;2023-04-06T08:23:45;9.50;66.40
17452;DHT22;8843;48.838;9.324;2023-04-06T08:26:12;9.70;56.20
17452;DHT22;8843;48.838;9.324;2023-04-06T08:28:39;8.90;56.10
17452;DHT22;8843;48.838;9.324;2023-04-06T08:31:06;8.60;57.40
17452;DHT22;8843;48.838;9.324;2023-04-06T08:33:35;8.60;57.20
17452;DHT22;8843;48.838;9.324;2023-04-06T08:36:08;8.70;57.40
17452;DHT22;8843;48.838;9.324;2023-04-06T08:38:36;8.60;56.70
17452;DHT22;8843;48.838;9.324;2023-04-06T08:41:13;9.20;59.50
17452;DHT22;8843;48.838;9.324;2023-04-06T08:43:43;10.10;58.40
17452;DHT22;8843;48.838;9.324;2023-04-06T08:46:11;10.20;58.40
17452;DHT22;8843;48.838;9.324;2023-04-06T08:48:40;9.80;58.60
17452;DHT22;8843;48.838;9.324;2023-04-06T08:51:08;9.50;58.90
17452;DHT22;8843;48.838;9.324;2023-04-06T08:53:35;9.30;59.50
17452;DHT22;8843;48.838;9.324;2023-04-06T08:56:03;9.20;60.20
17452;DHT22;8843;48.838;9.324;2023-04-06T08:58:34;9.10;60.60
17452;DHT22;8843;48.838;9.324;2023-04-06T09:01:06;9.00;59.70
17452;DHT22;8843;48.838;9.324;2023-04-06T09:03:37;9.00;60.10
17452;DHT22;8843;48.838;9.324;2023-04-06T09:06:07;8.90;59.60
17452;DHT22;8843;48.838;9.324;2023-04-06T09:08:34;8.90;60.60
17452;DHT22;8843;48.838;9.324;2023-04-06T09:11:02;8.90;60.70
17452;DHT22;8843;48.838;9.324;2023-04-06T09:13:29;9.00;60.20
17452;DHT22;8843;48.838;9.324;2023-04-06T09:16:01;9.30;58.90
17452;DHT22;8843;48.838;9.324;2023-04-06T09:18:28;9.30;59.80
17452;DHT22;8843;48.838;9.324;2023-04-06T09:21:00;9.30;59.10
17452;DHT22;8843;48.838;9.324;2023-04-06T09:23:29;9.40;58.40
17452;DHT22;8843;48.838;9.324;2023-04-06T09:26:14;9.40;58.80
17452;DHT22;8843;48.838;9.324;2023-04-06T09:28:46;9.50;58.30
17452;DHT22;8843;48.838;9.324;2023-04-06T09:31:14;9.80;58.20
17452;DHT22;8843;48.838;9.324;2023-04-06T09:33:43;9.70;57.80
17452;DHT22;8843;48.838;9.324;2023-04-06T09:36:10;10.10;56.20
17452;DHT22;8843;48.838;9.324;2023-04-06T09:38:51;10.20;55.90
17452;DHT22;8843;48.838;9.324;2023-04-06T09:41:23;10.50;55.10
17452;DHT22;8843;48.838;9.324;2023-04-06T09:43:51;10.60;53.90
17452;DHT22;8843;48.838;9.324;2023-04-06T09:46:21;10.50;53.00
17452;DHT22;8843;48.838;9.324;2023-04-06T09:48:49;10.70;52.70
17452;DHT22;8843;48.838;9.324;2023-04-06T09:51:18;10.90;52.90
17452;DHT22;8843;48.838;9.324;2023-04-06T09:53:49;11.00;54.50
17452;DHT22;8843;48.838;9.324;2023-04-06T09:56:22;11.10;53.90
17452;DHT22;8843;48.838;9.324;2023-04-06T09:58:55;11.30;54.10
17452;DHT22;8843;48.838;9.324;2023-04-06T10:01:26;11.40;53.00
17452;DHT22;8843;48.838;9.324;2023-04-06T10:03:59;11.50;53.00
17452;DHT22;8843;48.838;9.324;2023-04-06T10:06:32;11.50;53.60
17452;DHT22;8843;48.838;9.324;2023-04-06T10:09:02;11.90;52.80
17452;DHT22;8843;48.838;9.324;2023-04-06T10:11:31;12.10;52.30
17452;DHT22;8843;48.838;9.324;2023-04-06T10:13:58;12.10;51.30
17452;DHT22;8843;48.838;9.324;2023-04-06T10:16:25;12.20;49.60
17452;DHT22;8843;48.838;9.324;2023-04-06T10:18:58;12.50;48.50
17452;DHT22;8843;48.838;9.324;2023-04-06T10:21:29;12.80;48.40
17452;DHT22;8843;48.838;9.324;2023-04-06T10:24:00;13.00;46.70
17452;DHT22;8843;48.838;9.324;2023-04-06T10:26:29;13.30;45.90
17452;DHT22;8843;48.838;9.324;2023-04-06T10:29:03;13.50;46.00
17452;DHT22;8843;48.838;9.324;2023-04-06T10:31:30;13.60;51.30
17452;DHT22;8843;48.838;9.324;2023-04-06T10:33:58;13.80;46.10
17452;DHT22;8843;48.838;9.324;2023-04-06T10:36:27;13.90;45.00
17452;DHT22;8843;48.838;9.324;2023-04-06T10:38:57;14.10;47.50
17452;DHT22;8843;48.838;9.324;2023-04-06T10:41:32;14.10;43.40
17452;DHT22;8843;48.838;9.324;2023-04-06T10:44:00;14.50;43.50
17452;DHT22;8843;48.838;9.324;2023-04-06T10:46:28;14.70;42.60
17452;DHT22;8843;48.838;9.324;2023-04-06T10:48:56;14.50;45.70
17452;DHT22;8843;48.838;9.324;2023-04-06T10:51:25;14.70;42.80
17452;DHT22;8843;48.838;9.324;2023-04-06T10:53:55;15.30;42.30
17452;DHT22;8843;48.838;9.324;2023-04-06T10:56:24;15.40;44.30
17452;DHT22;8843;48.838;9.324;2023-04-06T10:58:55;15.20;42.50
17452;DHT22;8843;48.838;9.324;2023-04-06T11:01:23;15.30;42.80
17452;DHT22;8843;48.838;9.324;2023-04-06T11:03:53;15.20;43.30
17452;DHT22;8843;48.838;9.324;2023-04-06T11:06:21;15.30;42.60
17452;DHT22;8843;48.838;9.324;2023-04-06T11:08:49;15.60;43.20
17452;DHT22;8843;48.838;9.324;2023-04-06T11:11:18;15.30;43.20
17452;DHT22;8843;48.838;9.324;2023-04-06T11:13:49;15.60;43.00
17452;DHT22;8843;48.838;9.324;2023-04-06T11:16:18;15.70;43.50
17452;DHT22;8843;48.838;9.324;2023-04-06T11:18:50;15.30;43.10
17452;DHT22;8843;48.838;9.324;2023-04-06T11:21:17;15.40;44.50
17452;DHT22;8843;48.838;9.324;2023-04-06T11:23:44;15.40;42.50
17452;DHT22;8843;48.838;9.324;2023-04-06T11:26:12;15.30;42.20
17452;DHT22;8843;48.838;9.324;2023-04-06T11:28:40;15.30;44.40
17452;DHT22;8843;48.838;9.324;2023-04-06T11:31:09;15.50;43.60
17452;DHT22;8843;48.838;9.324;2023-04-06T11:33:38;15.60;43.00
17452;DHT22;8843;48.838;9.324;2023-04-06T11:36:06;15.90;42.70
17452;DHT22;8843;48.838;9.324;2023-04-06T11:38:33;15.80;42.20
17452;DHT22;8843;48.838;9.324;2023-04-06T11:41:01;16.00;42.10
17452;DHT22;8843;48.838;9.324;2023-04-06T11:43:29;16.30;41.00
17452;DHT22;8843;48.838;9.324;2023-04-06T11:46:00;16.40;41.20
17452;DHT22;8843;48.838;9.324;2023-04-06T11:48:28;16.40;40.90
17452;DHT22;8843;48.838;9.324;2023-04-06T11:50:57;16.40;41.30
17452;DHT22;8843;48.838;9.324;2023-04-06T11:53:26;16.60;39.70
17452;DHT22;8843;48.838;9.324;2023-04-06T11:55:53;16.70;40.00
17452;DHT22;8843;48.838;9.324;2023-04-06T11:58:20;16.90;40.00
17452;DHT22;8843;48.838;9.324;2023-04-06T12:00:47;16.90;39.00
17452;DHT22;8843;48.838;9.324;2023-04-06T12:03:14;16.60;38.50
17452;DHT22;8843;48.838;9.324;2023-04-06T12:05:41;16.70;38.70
17452;DHT22;8843;48.838;9.324;2023-04-06T12:08:10;16.50;37.10
17452;DHT22;8843;48.838;9.324;2023-04-06T12:10:37;16.40;37.40
17452;DHT22;8843;48.838;9.324;2023-04-06T12:13:04;16.40;36.80
17452;DHT22;8843;48.838;9.324;2023-04-06T12:15:31;16.40;36.80
17452;DHT22;8843;48.838;9.324;2023-04-06T12:17:58;16.80;37.10
17452;DHT22;8843;48.838;9.324;2023-04-06T12:20:25;16.80;35.60
17452;DHT22;8843;48.838;9.324;2023-04-06T12:22:52;16.70;34.30
17452;DHT22;8843;48.838;9.324;2023-04-06T12:25:20;16.60;34.70
17452;DHT22;8843;48.838;9.324;2023-04-06T12:27:47;16.60;35.10
17452;DHT22;8843;48.838;9.324;2023-04-06T12:30:15;16.60;36.10
17452;DHT22;8843;48.838;9.324;2023-04-06T12:32:42;16.70;34.70
17452;DHT22;8843;48.838;9.324;2023-04-06T12:35:09;16.70;34.70
17452;DHT22;8843;48.838;9.324;2023-04-06T12:37:37;16.90;34.00
17452;DHT22;8843;48.838;9.324;2023-04-06T12:40:05;17.20;34.10
17452;DHT22;8843;48.838;9.324;2023-04-06T12:42:34;17.20;33.30
17452;DHT22;8843;48.838;9.324;2023-04-06T12:45:01;17.30;33.30
17452;DHT22;8843;48.838;9.324;2023-04-06T12:47:28;17.10;33.40
17452;DHT22;8843;48.838;9.324;2023-04-06T12:49:55;17.40;34.10
17452;DHT22;8843;48.838;9.324;2023-04-06T12:52:22;17.30;33.30
17452;DHT22;8843;48.838;9.324;2023-04-06T12:54:49;17.50;33.90
17452;DHT22;8843;48.838;9.324;2023-04-06T12:57:17;17.50;32.90
17452;DHT22;8843;48.838;9.324;2023-04-06T12:59:45;17.60;33.30
17452;DHT22;8843;48.838;9.324;2023-04-06T13:02:12;17.60;32.60
17452;DHT22;8843;48.838;9.324;2023-04-06T13:04:39;17.40;32.80
17452;DHT22;8843;48.838;9.324;2023-04-06T13:07:06;17.30;34.30
17452;DHT22;8843;48.838;9.324;2023-04-06T13:09:33;16.90;32.10
17452;DHT22;8843;48.838;9.324;2023-04-06T13:12:00;16.60;34.10
17452;DHT22;8843;48.838;9.324;2023-04-06T13:14:27;16.80;33.70
17452;DHT22;8843;48.838;9.324;2023-04-06T13:16:56;16.60;35.20
17452;DHT22;8843;48.838;9.324;2023-04-06T13:19:23;16.90;32.90
17452;DHT22;8843;48.838;9.324;2023-04-06T13:21:50;16.90;34.20
17452;DHT22;8843;48.838;9.324;2023-04-06T13:24:17;16.80;34.70
17452;DHT22;8843;48.838;9.324;2023-04-06T13:26:45;16.70;34.10
17452;DHT22;8843;48.838;9.324;2023-04-06T13:29:12;16.50;34.60
17452;DHT22;8843;48.838;9.324;2023-04-06T13:31:39;16.50;34.40
17452;DHT22;8843;48.838;9.324;2023-04-06T13:34:07;16.60;33.70
17452;DHT22;8843;48.838;9.324;2023-04-06T13:36:34;16.60;33.40
17452;DHT22;8843;48.838;9.324;2023-04-06T13:39:01;16.60;32.70
17452;DHT22;8843;48.838;9.324;2023-04-06T13:41:28;16.30;34.10
17452;DHT22;8843;48.838;9.324;2023-04-06T13:43:55;16.30;33.50
17452;DHT22;8843;48.838;9.324;2023-04-06T13:46:23;16.20;34.80
17452;DHT22;8843;48.838;9.324;2023-04-06T13:48:50;16.10;34.60
17452;DHT22;8843;48.838;9.324;2023-04-06T13:51:19;15.80;34.80
17452;DHT22;8843;48.838;9.324;2023-04-06T13:53:46;15.60;33.90
17452;DHT22;8843;48.838;9.324;2023-04-06T13:56:13;15.60;36.10
17452;DHT22;8843;48.838;9.324;2023-04-06T13:58:40;15.70;35.40
17452;DHT22;8843;48.838;9.324;2023-04-06T14:01:07;15.60;35.50
17452;DHT22;8843;48.838;9.324;2023-04-06T14:03:35;15.60;35.50
17452;DHT22;8843;48.838;9.324;2023-04-06T14:06:09;15.50;34.40
17452;DHT22;8843;48.838;9.324;2023-04-06T14:08:38;15.60;34.70
17452;DHT22;8843;48.838;9.324;2023-04-06T14:11:05;15.60;34.60
17452;DHT22;8843;48.838;9.324;2023-04-06T14:13:33;15.30;37.60
17452;DHT22;8843;48.838;9.324;2023-04-06T14:16:00;15.30;34.90
17452;DHT22;8843;48.838;9.324;2023-04-06T14:18:27;15.20;35.30
17452;DHT22;8843;48.838;9.324;2023-04-06T14:20:57;14.90;36.30
17452;DHT22;8843;48.838;9.324;2023-04-06T14:23:24;15.10;34.50
17452;DHT22;8843;48.838;9.324;2023-04-06T14:26:01;15.00;36.10
17452;DHT22;8843;48.838;9.324;2023-04-06T14:28:29;15.10;33.90
17452;DHT22;8843;48.838;9.324;2023-04-06T14:30:56;15.10;34.20
17452;DHT22;8843;48.838;9.324;2023-04-06T14:33:23;15.00;34.10
17452;DHT22;8843;48.838;9.324;2023-04-06T14:35:50;15.00;34.20
17452;DHT22;8843;48.838;9.324;2023-04-06T14:38:18;15.10;34.20
17452;DHT22;8843;48.838;9.324;2023-04-06T14:40:45;15.00;37.20
17452;DHT22;8843;48.838;9.324;2023-04-06T14:43:14;14.80;35.70
17452;DHT22;8843;48.838;9.324;2023-04-06T14:45:40;15.00;36.20
17452;DHT22;8843;48.838;9.324;2023-04-06T14:48:07;14.90;36.50
17452;DHT22;8843;48.838;9.324;2023-04-06T14:50:37;14.90;36.70
17452;DHT22;8843;48.838;9.324;2023-04-06T14:53:05;14.90;38.40
17452;DHT22;8843;48.838;9.324;2023-04-06T14:55:32;14.60;38.20
17452;DHT22;8843;48.838;9.324;2023-04-06T14:57:59;14.50;39.00
17452;DHT22;8843;48.838;9.324;2023-04-06T15:00:27;14.50;36.50
17452;DHT22;8843;48.838;9.324;2023-04-06T15:02:54;14.50;36.70
17452;DHT22;8843;48.838;9.324;2023-04-06T15:05:21;14.70;36.50
17452;DHT22;8843;48.838;9.324;2023-04-06T15:07:48;14.40;37.40
17452;DHT22;8843;48.838;9.324;2023-04-06T15:10:17;14.30;37.20
17452;DHT22;8843;48.838;9.324;2023-04-06T15:12:45;14.40;35.10
17452;DHT22;8843;48.838;9.324;2023-04-06T15:15:12;14.40;35.40
17452;DHT22;8843;48.838;9.324;2023-04-06T15:17:40;14.50;35.40
17452;DHT22;8843;48.838;9.324;2023-04-06T15:20:08;14.50;35.40
17452;DHT22;8843;48.838;9.324;2023-04-06T15:22:35;14.60;36.10
17452;DHT22;8843;48.838;9.324;2023-04-06T15:25:02;14.50;36.20
17452;DHT22;8843;48.838;9.324;2023-04-06T15:27:29;14.40;36.10
17452;DHT22;8843;48.838;9.324;2023-04-06T15:29:58;14.40;38.60
17452;DHT22;8843;48.838;9.324;2023-04-06T15:32:27;14.30;36.90
17452;DHT22;8843;48.838;9.324;2023-04-06T15:34:58;14.30;36.00
17452;DHT22;8843;48.838;9.324;2023-04-06T15:37:25;14.30;36.20
17452;DHT22;8843;48.838;9.324;2023-04-06T15:39:52;14.40;36.40
17452;DHT22;8843;48.838;9.324;2023-04-06T15:42:20;14.40;34.90
17452;DHT22;8843;48.838;9.324;2023-04-06T15:44:49;14.40;35.00
17452;DHT22;8843;48.838;9.324;2023-04-06T15:47:16;14.40;35.10
17452;DHT22;8843;48.838;9.324;2023-04-06T15:49:43;14.40;35.00
17452;DHT22;8843;48.838;9.324;2023-04-06T15:52:12;14.30;35.30
17452;DHT22;8843;48.838;9.324;2023-04-06T15:54:39;14.30;35.30
17452;DHT22;8843;48.838;9.324;2023-04-06T15:57:06;14.30;35.20